sensor_id;sensor_type;location;lat;lon;timestamp;temperature;humidity
48978;DHT22;34793;48.940;2.618;2023-02-28T00:00:05;6.50;69.40
48978;DHT22;34793;48.940;2.618;2023-02-28T00:02:37;6.60;69.20
48978;DHT22;34793;48.940;2.618;2023-02-28T00:05:14;6.60;69.20
48978;DHT22;34793;48.940;2.618;2023-02-28T00:07:40;6.50;69.50
48978;DHT22;34793;48.940;2.618;2023-02-28T00:10:08;6.70;69.00
48978;DHT22;34793;48.940;2.618;2023-02-28T00:12:34;6.70;69.30
48978;DHT22;34793;48.940;2.618;2023-02-28T00:15:01;6.80;68.50
48978;DHT22;34793;48.940;2.618;2023-02-28T00:17:26;6.70;68.70
48978;DHT22;34793;48.940;2.618;2023-02-28T00:19:52;6.70;68.70
48978;DHT22;34793;48.940;2.618;2023-02-28T00:22:18;6.80;68.80
48978;DHT22;34793;48.940;2.618;2023-02-28T00:24:47;6.80;68.30
48978;DHT22;34793;48.940;2.618;2023-02-28T00:27:13;7.10;67.60
48978;DHT22;34793;48.940;2.618;2023-02-28T00:29:39;7.20;67.20
48978;DHT22;34793;48.940;2.618;2023-02-28T00:32:05;7.00;67.60
48978;DHT22;34793;48.940;2.618;2023-02-28T00:34:30;6.80;68.60
48978;DHT22;34793;48.940;2.618;2023-02-28T00:36:56;6.80;68.60
48978;DHT22;34793;48.940;2.618;2023-02-28T00:39:21;6.60;69.00
48978;DHT22;34793;48.940;2.618;2023-02-28T00:41:47;6.40;69.90
48978;DHT22;34793;48.940;2.618;2023-02-28T00:44:13;6.50;69.00
48978;DHT22;34793;48.940;2.618;2023-02-28T00:46:38;6.60;69.00
48978;DHT22;34793;48.940;2.618;2023-02-28T00:49:04;6.60;68.80
48978;DHT22;34793;48.940;2.618;2023-02-28T00:51:29;6.80;68.50
48978;DHT22;34793;48.940;2.618;2023-02-28T00:53:55;6.80;68.10
48978;DHT22;34793;48.940;2.618;2023-02-28T00:56:20;6.80;67.90
48978;DHT22;34793;48.940;2.618;2023-02-28T00:58:46;6.70;68.40
48978;DHT22;34793;48.940;2.618;2023-02-28T01:01:12;6.60;68.50
48978;DHT22;34793;48.940;2.618;2023-02-28T01:03:37;6.60;68.60
48978;DHT22;34793;48.940;2.618;2023-02-28T01:06:03;6.70;68.20
48978;DHT22;34793;48.940;2.618;2023-02-28T01:08:29;6.70;68.00
48978;DHT22;34793;48.940;2.618;2023-02-28T01:10:54;6.80;67.60
48978;DHT22;34793;48.940;2.618;2023-02-28T01:13:20;6.90;67.30
48978;DHT22;34793;48.940;2.618;2023-02-28T01:15:49;6.70;67.40
48978;DHT22;34793;48.940;2.618;2023-02-28T01:18:16;6.90;67.00
48978;DHT22;34793;48.940;2.618;2023-02-28T01:20:41;7.00;67.30
48978;DHT22;34793;48.940;2.618;2023-02-28T01:23:07;6.90;67.00
48978;DHT22;34793;48.940;2.618;2023-02-28T01:25:36;7.00;66.80
48978;DHT22;34793;48.940;2.618;2023-02-28T01:28:02;6.90;67.10
48978;DHT22;34793;48.940;2.618;2023-02-28T01:30:27;6.80;67.10
48978;DHT22;34793;48.940;2.618;2023-02-28T01:32:53;6.90;67.70
48978;DHT22;34793;48.940;2.618;2023-02-28T01:35:19;6.70;67.20
48978;DHT22;34793;48.940;2.618;2023-02-28T01:37:44;6.60;68.30
48978;DHT22;34793;48.940;2.618;2023-02-28T01:40:10;6.50;68.60
48978;DHT22;34793;48.940;2.618;2023-02-28T01:42:36;6.30;69.00
48978;DHT22;34793;48.940;2.618;2023-02-28T01:47:39;6.20;69.20
48978;DHT22;34793;48.940;2.618;2023-02-28T01:50:07;6.30;68.70
48978;DHT22;34793;48.940;2.618;2023-02-28T01:52:34;6.50;68.20
48978;DHT22;34793;48.940;2.618;2023-02-28T01:55:01;6.60;67.80
48978;DHT22;34793;48.940;2.618;2023-02-28T01:57:29;6.70;68.20
48978;DHT22;34793;48.940;2.618;2023-02-28T01:59:57;6.40;68.60
48978;DHT22;34793;48.940;2.618;2023-02-28T02:02:24;6.40;68.30
48978;DHT22;34793;48.940;2.618;2023-02-28T02:07:15;6.90;68.20
48978;DHT22;34793;48.940;2.618;2023-02-28T02:09:41;6.70;67.20
48978;DHT22;34793;48.940;2.618;2023-02-28T02:12:31;6.60;67.30
48978;DHT22;34793;48.940;2.618;2023-02-28T02:15:00;6.50;67.30
48978;DHT22;34793;48.940;2.618;2023-02-28T02:17:32;6.40;67.80
48978;DHT22;34793;48.940;2.618;2023-02-28T02:20:13;6.40;68.00
48978;DHT22;34793;48.940;2.618;2023-02-28T02:30:21;6.40;67.80
48978;DHT22;34793;48.940;2.618;2023-02-28T02:33:02;6.30;68.30
48978;DHT22;34793;48.940;2.618;2023-02-28T02:38:17;6.20;68.20
48978;DHT22;34793;48.940;2.618;2023-02-28T02:40:50;6.00;68.80
48978;DHT22;34793;48.940;2.618;2023-02-28T02:43:19;6.00;68.90
48978;DHT22;34793;48.940;2.618;2023-02-28T02:45:55;6.00;68.20
48978;DHT22;34793;48.940;2.618;2023-02-28T02:48:24;6.00;67.70
48978;DHT22;34793;48.940;2.618;2023-02-28T02:50:54;6.10;68.10
48978;DHT22;34793;48.940;2.618;2023-02-28T02:53:21;6.20;67.90
48978;DHT22;34793;48.940;2.618;2023-02-28T02:55:50;6.10;67.20
48978;DHT22;34793;48.940;2.618;2023-02-28T02:58:20;6.30;67.10
48978;DHT22;34793;48.940;2.618;2023-02-28T03:00:48;6.20;67.40
48978;DHT22;34793;48.940;2.618;2023-02-28T03:03:14;6.00;67.60
48978;DHT22;34793;48.940;2.618;2023-02-28T03:05:46;6.10;67.50
48978;DHT22;34793;48.940;2.618;2023-02-28T03:08:12;6.10;67.60
48978;DHT22;34793;48.940;2.618;2023-02-28T03:10:39;6.10;67.40
48978;DHT22;34793;48.940;2.618;2023-02-28T03:18:36;6.00;67.70
48978;DHT22;34793;48.940;2.618;2023-02-28T03:24:06;6.10;66.90
48978;DHT22;34793;48.940;2.618;2023-02-28T03:26:34;6.20;67.10
48978;DHT22;34793;48.940;2.618;2023-02-28T03:31:28;6.00;66.90
48978;DHT22;34793;48.940;2.618;2023-02-28T03:33:59;6.00;66.70
48978;DHT22;34793;48.940;2.618;2023-02-28T03:36:30;6.10;67.10
48978;DHT22;34793;48.940;2.618;2023-02-28T03:39:02;5.80;66.70
48978;DHT22;34793;48.940;2.618;2023-02-28T03:41:39;6.10;66.40
48978;DHT22;34793;48.940;2.618;2023-02-28T03:44:06;6.20;66.30
48978;DHT22;34793;48.940;2.618;2023-02-28T03:46:36;6.40;65.80
48978;DHT22;34793;48.940;2.618;2023-02-28T03:49:05;6.20;65.50
48978;DHT22;34793;48.940;2.618;2023-02-28T03:51:33;6.40;65.60
48978;DHT22;34793;48.940;2.618;2023-02-28T03:54:01;6.00;65.60
48978;DHT22;34793;48.940;2.618;2023-02-28T03:56:40;6.20;65.60
48978;DHT22;34793;48.940;2.618;2023-02-28T03:59:12;6.00;65.70
48978;DHT22;34793;48.940;2.618;2023-02-28T04:01:39;6.00;66.40
48978;DHT22;34793;48.940;2.618;2023-02-28T04:04:07;5.90;66.40
48978;DHT22;34793;48.940;2.618;2023-02-28T04:06:33;5.90;66.10
48978;DHT22;34793;48.940;2.618;2023-02-28T04:08:58;5.90;66.20
48978;DHT22;34793;48.940;2.618;2023-02-28T04:11:42;5.70;66.60
48978;DHT22;34793;48.940;2.618;2023-02-28T04:14:08;5.90;66.60
48978;DHT22;34793;48.940;2.618;2023-02-28T04:16:35;5.90;66.80
48978;DHT22;34793;48.940;2.618;2023-02-28T04:19:01;5.70;66.50
48978;DHT22;34793;48.940;2.618;2023-02-28T04:21:28;5.70;67.20
48978;DHT22;34793;48.940;2.618;2023-02-28T04:23:54;5.60;67.20
48978;DHT22;34793;48.940;2.618;2023-02-28T04:26:19;5.60;67.30
48978;DHT22;34793;48.940;2.618;2023-02-28T04:28:45;5.60;67.10
48978;DHT22;34793;48.940;2.618;2023-02-28T04:31:10;5.70;67.00
48978;DHT22;34793;48.940;2.618;2023-02-28T04:33:36;5.70;66.70
48978;DHT22;34793;48.940;2.618;2023-02-28T04:36:02;5.70;66.60
48978;DHT22;34793;48.940;2.618;2023-02-28T04:38:29;5.80;66.30
48978;DHT22;34793;48.940;2.618;2023-02-28T04:40:56;5.60;66.20
48978;DHT22;34793;48.940;2.618;2023-02-28T04:43:22;5.80;66.50
48978;DHT22;34793;48.940;2.618;2023-02-28T04:45:47;5.80;66.60
48978;DHT22;34793;48.940;2.618;2023-02-28T04:48:13;6.80;66.90
48978;DHT22;34793;48.940;2.618;2023-02-28T04:50:38;5.80;66.50
48978;DHT22;34793;48.940;2.618;2023-02-28T04:53:04;5.90;66.10
48978;DHT22;34793;48.940;2.618;2023-02-28T04:55:30;5.90;66.10
48978;DHT22;34793;48.940;2.618;2023-02-28T04:57:55;5.80;66.00
48978;DHT22;34793;48.940;2.618;2023-02-28T05:00:21;5.70;66.20
48978;DHT22;34793;48.940;2.618;2023-02-28T05:02:46;5.80;66.40
48978;DHT22;34793;48.940;2.618;2023-02-28T05:05:12;5.90;66.10
48978;DHT22;34793;48.940;2.618;2023-02-28T05:07:43;5.60;66.10
48978;DHT22;34793;48.940;2.618;2023-02-28T05:10:09;5.80;66.20
48978;DHT22;34793;48.940;2.618;2023-02-28T05:12:35;5.70;66.40
48978;DHT22;34793;48.940;2.618;2023-02-28T05:15:01;5.80;66.00
48978;DHT22;34793;48.940;2.618;2023-02-28T05:17:27;5.80;65.40
48978;DHT22;34793;48.940;2.618;2023-02-28T05:19:53;5.70;65.90
48978;DHT22;34793;48.940;2.618;2023-02-28T05:22:19;5.70;65.90
48978;DHT22;34793;48.940;2.618;2023-02-28T05:24:44;5.70;66.00
48978;DHT22;34793;48.940;2.618;2023-02-28T05:27:10;5.40;66.80
48978;DHT22;34793;48.940;2.618;2023-02-28T05:29:36;5.70;66.20
48978;DHT22;34793;48.940;2.618;2023-02-28T05:32:10;5.60;67.00
48978;DHT22;34793;48.940;2.618;2023-02-28T05:34:36;5.60;66.20
48978;DHT22;34793;48.940;2.618;2023-02-28T05:37:02;5.90;66.20
48978;DHT22;34793;48.940;2.618;2023-02-28T05:39:28;5.80;67.00
48978;DHT22;34793;48.940;2.618;2023-02-28T05:41:53;5.60;68.20
48978;DHT22;34793;48.940;2.618;2023-02-28T05:44:19;5.50;68.00
48978;DHT22;34793;48.940;2.618;2023-02-28T05:46:44;5.60;68.10
48978;DHT22;34793;48.940;2.618;2023-02-28T05:49:10;5.50;68.20
48978;DHT22;34793;48.940;2.618;2023-02-28T05:51:35;5.40;68.50
48978;DHT22;34793;48.940;2.618;2023-02-28T05:54:05;5.50;68.70
48978;DHT22;34793;48.940;2.618;2023-02-28T05:56:31;5.60;68.20
48978;DHT22;34793;48.940;2.618;2023-02-28T05:58:56;5.50;68.30
48978;DHT22;34793;48.940;2.618;2023-02-28T06:01:35;5.70;68.20
48978;DHT22;34793;48.940;2.618;2023-02-28T06:04:02;5.50;69.70
48978;DHT22;34793;48.940;2.618;2023-02-28T06:06:28;5.50;69.50
48978;DHT22;34793;48.940;2.618;2023-02-28T06:08:55;5.50;69.20
48978;DHT22;34793;48.940;2.618;2023-02-28T06:11:20;5.50;69.50
48978;DHT22;34793;48.940;2.618;2023-02-28T06:13:46;5.30;70.20
48978;DHT22;34793;48.940;2.618;2023-02-28T06:16:12;5.40;69.80
48978;DHT22;34793;48.940;2.618;2023-02-28T06:18:38;5.40;69.60
48978;DHT22;34793;48.940;2.618;2023-02-28T06:21:04;5.40;69.90
48978;DHT22;34793;48.940;2.618;2023-02-28T06:23:29;5.40;69.40
48978;DHT22;34793;48.940;2.618;2023-02-28T06:25:55;5.30;70.80
48978;DHT22;34793;48.940;2.618;2023-02-28T06:28:24;5.30;71.30
48978;DHT22;34793;48.940;2.618;2023-02-28T06:30:49;5.40;70.50
48978;DHT22;34793;48.940;2.618;2023-02-28T06:33:15;5.50;70.00
48978;DHT22;34793;48.940;2.618;2023-02-28T06:35:43;5.40;69.60
48978;DHT22;34793;48.940;2.618;2023-02-28T06:38:09;5.20;69.70
48978;DHT22;34793;48.940;2.618;2023-02-28T06:40:34;5.50;69.20
48978;DHT22;34793;48.940;2.618;2023-02-28T06:43:01;5.60;69.00
48978;DHT22;34793;48.940;2.618;2023-02-28T06:45:26;5.50;68.90
48978;DHT22;34793;48.940;2.618;2023-02-28T06:47:52;5.50;69.20
48978;DHT22;34793;48.940;2.618;2023-02-28T06:50:18;5.40;69.70
48978;DHT22;34793;48.940;2.618;2023-02-28T06:52:46;5.40;69.50
48978;DHT22;34793;48.940;2.618;2023-02-28T06:55:13;5.40;70.10
48978;DHT22;34793;48.940;2.618;2023-02-28T06:57:38;5.40;70.10
48978;DHT22;34793;48.940;2.618;2023-02-28T07:00:05;5.40;69.90
48978;DHT22;34793;48.940;2.618;2023-02-28T07:02:33;5.30;71.00
48978;DHT22;34793;48.940;2.618;2023-02-28T07:04:58;5.20;71.30
48978;DHT22;34793;48.940;2.618;2023-02-28T07:07:24;5.10;71.70
48978;DHT22;34793;48.940;2.618;2023-02-28T07:12:42;5.10;71.90
48978;DHT22;34793;48.940;2.618;2023-02-28T07:15:08;5.10;71.70
48978;DHT22;34793;48.940;2.618;2023-02-28T07:17:34;5.10;71.70
48978;DHT22;34793;48.940;2.618;2023-02-28T07:19:59;5.10;71.40
48978;DHT22;34793;48.940;2.618;2023-02-28T07:22:25;5.20;72.20
48978;DHT22;34793;48.940;2.618;2023-02-28T07:24:51;5.60;73.10
48978;DHT22;34793;48.940;2.618;2023-02-28T07:27:17;5.10;72.40
48978;DHT22;34793;48.940;2.618;2023-02-28T07:29:52;5.00;72.50
48978;DHT22;34793;48.940;2.618;2023-02-28T07:32:18;5.00;73.40
48978;DHT22;34793;48.940;2.618;2023-02-28T07:34:44;5.00;73.40
48978;DHT22;34793;48.940;2.618;2023-02-28T07:37:10;5.10;73.20
48978;DHT22;34793;48.940;2.618;2023-02-28T07:39:35;5.10;72.70
48978;DHT22;34793;48.940;2.618;2023-02-28T07:42:04;5.40;72.10
48978;DHT22;34793;48.940;2.618;2023-02-28T07:44:29;5.40;72.40
48978;DHT22;34793;48.940;2.618;2023-02-28T07:46:55;5.40;72.70
48978;DHT22;34793;48.940;2.618;2023-02-28T07:49:20;5.20;73.10
48978;DHT22;34793;48.940;2.618;2023-02-28T07:51:46;5.10;73.80
48978;DHT22;34793;48.940;2.618;2023-02-28T07:54:12;5.00;74.00
48978;DHT22;34793;48.940;2.618;2023-02-28T07:56:37;5.00;74.70
48978;DHT22;34793;48.940;2.618;2023-02-28T07:59:03;5.00;74.50
48978;DHT22;34793;48.940;2.618;2023-02-28T08:01:28;5.00;74.20
48978;DHT22;34793;48.940;2.618;2023-02-28T08:03:54;5.20;74.70
48978;DHT22;34793;48.940;2.618;2023-02-28T08:06:21;5.10;74.90
48978;DHT22;34793;48.940;2.618;2023-02-28T08:08:47;5.30;74.70
48978;DHT22;34793;48.940;2.618;2023-02-28T08:11:12;5.20;74.50
48978;DHT22;34793;48.940;2.618;2023-02-28T08:13:38;5.20;74.60
48978;DHT22;34793;48.940;2.618;2023-02-28T08:16:03;5.40;74.20
48978;DHT22;34793;48.940;2.618;2023-02-28T08:18:29;5.40;74.10
48978;DHT22;34793;48.940;2.618;2023-02-28T08:20:55;5.50;74.00
48978;DHT22;34793;48.940;2.618;2023-02-28T08:23:20;5.60;74.00
48978;DHT22;34793;48.940;2.618;2023-02-28T08:25:52;5.60;74.30
48978;DHT22;34793;48.940;2.618;2023-02-28T08:28:18;5.70;73.70
48978;DHT22;34793;48.940;2.618;2023-02-28T08:30:43;6.00;73.90
48978;DHT22;34793;48.940;2.618;2023-02-28T08:33:09;5.50;74.60
48978;DHT22;34793;48.940;2.618;2023-02-28T08:35:35;5.60;74.00
48978;DHT22;34793;48.940;2.618;2023-02-28T08:38:01;5.60;74.40
48978;DHT22;34793;48.940;2.618;2023-02-28T08:40:26;5.80;74.00
48978;DHT22;34793;48.940;2.618;2023-02-28T08:42:52;5.80;73.70
48978;DHT22;34793;48.940;2.618;2023-02-28T08:45:17;5.90;73.40
48978;DHT22;34793;48.940;2.618;2023-02-28T08:47:43;5.80;73.70
48978;DHT22;34793;48.940;2.618;2023-02-28T08:50:08;5.60;74.10
48978;DHT22;34793;48.940;2.618;2023-02-28T08:52:34;5.50;74.70
48978;DHT22;34793;48.940;2.618;2023-02-28T08:55:00;5.60;74.50
48978;DHT22;34793;48.940;2.618;2023-02-28T08:57:25;5.70;74.30
48978;DHT22;34793;48.940;2.618;2023-02-28T08:59:53;6.00;73.90
48978;DHT22;34793;48.940;2.618;2023-02-28T09:02:19;6.10;73.60
48978;DHT22;34793;48.940;2.618;2023-02-28T09:04:45;6.20;73.30
48978;DHT22;34793;48.940;2.618;2023-02-28T09:07:13;6.40;72.60
48978;DHT22;34793;48.940;2.618;2023-02-28T09:09:39;6.30;72.10
48978;DHT22;34793;48.940;2.618;2023-02-28T09:12:27;6.10;73.00
48978;DHT22;34793;48.940;2.618;2023-02-28T09:14:57;5.80;73.20
48978;DHT22;34793;48.940;2.618;2023-02-28T09:17:22;5.80;74.10
48978;DHT22;34793;48.940;2.618;2023-02-28T09:19:48;6.00;73.80
48978;DHT22;34793;48.940;2.618;2023-02-28T09:22:14;6.00;73.50
48978;DHT22;34793;48.940;2.618;2023-02-28T09:24:40;6.10;73.20
48978;DHT22;34793;48.940;2.618;2023-02-28T09:27:05;6.20;72.90
48978;DHT22;34793;48.940;2.618;2023-02-28T09:29:31;6.30;73.40
48978;DHT22;34793;48.940;2.618;2023-02-28T09:31:57;6.50;73.00
48978;DHT22;34793;48.940;2.618;2023-02-28T09:34:26;6.70;72.50
48978;DHT22;34793;48.940;2.618;2023-02-28T09:36:51;6.80;71.60
48978;DHT22;34793;48.940;2.618;2023-02-28T09:39:20;6.60;71.60
48978;DHT22;34793;48.940;2.618;2023-02-28T09:41:47;7.00;71.10
48978;DHT22;34793;48.940;2.618;2023-02-28T09:44:20;7.20;70.30
48978;DHT22;34793;48.940;2.618;2023-02-28T09:46:48;7.30;69.60
48978;DHT22;34793;48.940;2.618;2023-02-28T09:49:19;7.50;69.80
48978;DHT22;34793;48.940;2.618;2023-02-28T09:54:21;8.10;67.90
48978;DHT22;34793;48.940;2.618;2023-02-28T09:56:51;8.00;67.50
48978;DHT22;34793;48.940;2.618;2023-02-28T09:59:29;8.40;66.90
48978;DHT22;34793;48.940;2.618;2023-02-28T10:07:00;9.00;65.00
48978;DHT22;34793;48.940;2.618;2023-02-28T10:09:29;9.20;64.30
48978;DHT22;34793;48.940;2.618;2023-02-28T10:11:56;9.50;64.00
48978;DHT22;34793;48.940;2.618;2023-02-28T10:14:24;9.90;63.00
48978;DHT22;34793;48.940;2.618;2023-02-28T10:19:23;10.30;61.50
48978;DHT22;34793;48.940;2.618;2023-02-28T10:21:57;10.30;61.30
48978;DHT22;34793;48.940;2.618;2023-02-28T10:24:32;10.50;61.70
48978;DHT22;34793;48.940;2.618;2023-02-28T10:27:01;10.90;60.40
48978;DHT22;34793;48.940;2.618;2023-02-28T10:29:28;11.10;58.90
48978;DHT22;34793;48.940;2.618;2023-02-28T10:31:57;11.30;58.50
48978;DHT22;34793;48.940;2.618;2023-02-28T10:34:23;11.50;58.60
48978;DHT22;34793;48.940;2.618;2023-02-28T10:36:49;11.60;58.10
48978;DHT22;34793;48.940;2.618;2023-02-28T10:39:33;11.90;58.00
48978;DHT22;34793;48.940;2.618;2023-02-28T10:41:59;12.30;58.10
48978;DHT22;34793;48.940;2.618;2023-02-28T10:44:24;12.30;54.70
48978;DHT22;34793;48.940;2.618;2023-02-28T10:46:50;12.20;55.90
48978;DHT22;34793;48.940;2.618;2023-02-28T10:49:23;12.30;54.20
48978;DHT22;34793;48.940;2.618;2023-02-28T10:51:54;12.20;52.90
48978;DHT22;34793;48.940;2.618;2023-02-28T10:54:38;12.10;53.60
48978;DHT22;34793;48.940;2.618;2023-02-28T10:57:17;11.90;55.10
48978;DHT22;34793;48.940;2.618;2023-02-28T10:59:43;11.80;54.30
48978;DHT22;34793;48.940;2.618;2023-02-28T11:02:28;11.70;56.70
48978;DHT22;34793;48.940;2.618;2023-02-28T11:04:54;11.90;55.70
48978;DHT22;34793;48.940;2.618;2023-02-28T11:07:20;11.90;55.50
48978;DHT22;34793;48.940;2.618;2023-02-28T11:09:50;11.90;54.60
48978;DHT22;34793;48.940;2.618;2023-02-28T11:12:19;11.50;54.70
48978;DHT22;34793;48.940;2.618;2023-02-28T11:14:50;11.00;56.10
48978;DHT22;34793;48.940;2.618;2023-02-28T11:17:20;10.90;57.20
48978;DHT22;34793;48.940;2.618;2023-02-28T11:19:47;10.90;55.10
48978;DHT22;34793;48.940;2.618;2023-02-28T11:22:21;11.40;56.40
48978;DHT22;34793;48.940;2.618;2023-02-28T11:24:49;12.00;55.30
48978;DHT22;34793;48.940;2.618;2023-02-28T11:29:57;12.10;54.00
48978;DHT22;34793;48.940;2.618;2023-02-28T11:32:24;12.00;51.80
48978;DHT22;34793;48.940;2.618;2023-02-28T11:35:03;12.20;52.80
48978;DHT22;34793;48.940;2.618;2023-02-28T11:37:30;11.90;53.20
48978;DHT22;34793;48.940;2.618;2023-02-28T11:39:56;12.00;52.90
48978;DHT22;34793;48.940;2.618;2023-02-28T11:45:22;12.50;53.80
48978;DHT22;34793;48.940;2.618;2023-02-28T11:48:34;12.20;52.10
48978;DHT22;34793;48.940;2.618;2023-02-28T11:50:48;11.70;52.00
48978;DHT22;34793;48.940;2.618;2023-02-28T11:56:18;11.80;52.70
48978;DHT22;34793;48.940;2.618;2023-02-28T11:58:42;12.20;52.10
48978;DHT22;34793;48.940;2.618;2023-02-28T12:06:22;12.30;51.80
48978;DHT22;34793;48.940;2.618;2023-02-28T12:14:05;12.50;50.40
48978;DHT22;34793;48.940;2.618;2023-02-28T12:16:41;12.40;50.90
48978;DHT22;34793;48.940;2.618;2023-02-28T12:24:14;12.60;50.90
48978;DHT22;34793;48.940;2.618;2023-02-28T12:26:45;12.60;51.60
48978;DHT22;34793;48.940;2.618;2023-02-28T12:31:41;12.10;51.10
48978;DHT22;34793;48.940;2.618;2023-02-28T12:34:12;11.70;51.30
48978;DHT22;34793;48.940;2.618;2023-02-28T12:36:41;11.20;51.80
48978;DHT22;34793;48.940;2.618;2023-02-28T12:39:17;11.20;53.20
48978;DHT22;34793;48.940;2.618;2023-02-28T12:41:48;11.40;52.40
48978;DHT22;34793;48.940;2.618;2023-02-28T12:44:22;11.40;53.00
48978;DHT22;34793;48.940;2.618;2023-02-28T12:46:50;11.20;52.60
48978;DHT22;34793;48.940;2.618;2023-02-28T12:49:17;11.30;52.20
48978;DHT22;34793;48.940;2.618;2023-02-28T12:51:44;11.20;53.80
48978;DHT22;34793;48.940;2.618;2023-02-28T12:54:29;11.00;52.80
48978;DHT22;34793;48.940;2.618;2023-02-28T12:57:13;11.50;52.80
48978;DHT22;34793;48.940;2.618;2023-02-28T12:59:54;12.20;51.20
48978;DHT22;34793;48.940;2.618;2023-02-28T13:02:41;12.20;50.30
48978;DHT22;34793;48.940;2.618;2023-02-28T13:10:12;12.10;51.00
48978;DHT22;34793;48.940;2.618;2023-02-28T13:12:47;11.90;49.70
48978;DHT22;34793;48.940;2.618;2023-02-28T13:17:41;11.90;51.90
48978;DHT22;34793;48.940;2.618;2023-02-28T13:22:52;12.00;50.80
48978;DHT22;34793;48.940;2.618;2023-02-28T13:27:47;11.50;50.90
48978;DHT22;34793;48.940;2.618;2023-02-28T13:33:19;11.10;51.50
48978;DHT22;34793;48.940;2.618;2023-02-28T13:35:46;11.30;51.80
48978;DHT22;34793;48.940;2.618;2023-02-28T13:38:15;11.70;51.00
48978;DHT22;34793;48.940;2.618;2023-02-28T13:40:41;11.50;50.50
48978;DHT22;34793;48.940;2.618;2023-02-28T13:43:07;11.00;50.50
48978;DHT22;34793;48.940;2.618;2023-02-28T13:45:33;11.00;50.70
48978;DHT22;34793;48.940;2.618;2023-02-28T13:48:04;10.90;50.30
48978;DHT22;34793;48.940;2.618;2023-02-28T13:50:39;11.20;52.20
48978;DHT22;34793;48.940;2.618;2023-02-28T13:56:25;11.50;50.50
48978;DHT22;34793;48.940;2.618;2023-02-28T14:06:34;11.20;50.90
48978;DHT22;34793;48.940;2.618;2023-02-28T14:09:00;11.00;50.10
48978;DHT22;34793;48.940;2.618;2023-02-28T14:13:58;10.60;50.80
48978;DHT22;34793;48.940;2.618;2023-02-28T14:16:25;10.70;50.90
48978;DHT22;34793;48.940;2.618;2023-02-28T14:18:59;10.60;51.00
48978;DHT22;34793;48.940;2.618;2023-02-28T14:24:13;10.70;51.20
48978;DHT22;34793;48.940;2.618;2023-02-28T14:27:20;11.00;51.30
48978;DHT22;34793;48.940;2.618;2023-02-28T14:34:48;11.20;51.00
48978;DHT22;34793;48.940;2.618;2023-02-28T14:37:17;11.40;50.30
48978;DHT22;34793;48.940;2.618;2023-02-28T14:39:44;11.00;49.60
48978;DHT22;34793;48.940;2.618;2023-02-28T14:44:54;10.30;51.40
48978;DHT22;34793;48.940;2.618;2023-02-28T14:47:21;10.40;51.80
48978;DHT22;34793;48.940;2.618;2023-02-28T14:49:49;10.50;52.40
48978;DHT22;34793;48.940;2.618;2023-02-28T14:52:15;10.80;53.30
48978;DHT22;34793;48.940;2.618;2023-02-28T14:54:42;11.20;52.10
48978;DHT22;34793;48.940;2.618;2023-02-28T15:00:23;11.50;51.30
48978;DHT22;34793;48.940;2.618;2023-02-28T15:02:50;11.50;51.20
48978;DHT22;34793;48.940;2.618;2023-02-28T15:05:22;11.10;51.90
48978;DHT22;34793;48.940;2.618;2023-02-28T15:07:48;10.80;51.30
48978;DHT22;34793;48.940;2.618;2023-02-28T15:10:24;10.70;51.90
48978;DHT22;34793;48.940;2.618;2023-02-28T15:12:55;10.70;52.00
48978;DHT22;34793;48.940;2.618;2023-02-28T15:15:25;11.00;51.80
48978;DHT22;34793;48.940;2.618;2023-02-28T15:17:52;11.00;50.40
48978;DHT22;34793;48.940;2.618;2023-02-28T15:20:19;10.70;50.10
48978;DHT22;34793;48.940;2.618;2023-02-28T15:22:45;10.80;50.50
48978;DHT22;34793;48.940;2.618;2023-02-28T15:25:13;11.00;50.80
48978;DHT22;34793;48.940;2.618;2023-02-28T15:27:42;11.00;50.30
48978;DHT22;34793;48.940;2.618;2023-02-28T15:30:17;10.80;51.00
48978;DHT22;34793;48.940;2.618;2023-02-28T15:32:43;10.70;51.10
48978;DHT22;34793;48.940;2.618;2023-02-28T15:37:53;11.10;50.70
48978;DHT22;34793;48.940;2.618;2023-02-28T15:42:58;11.50;49.90
48978;DHT22;34793;48.940;2.618;2023-02-28T15:45:34;11.60;50.50
48978;DHT22;34793;48.940;2.618;2023-02-28T15:48:25;11.20;50.70
48978;DHT22;34793;48.940;2.618;2023-02-28T15:50:53;10.80;51.10
48978;DHT22;34793;48.940;2.618;2023-02-28T15:53:28;11.00;50.40
48978;DHT22;34793;48.940;2.618;2023-02-28T15:55:55;11.00;51.30
48978;DHT22;34793;48.940;2.618;2023-02-28T15:58:22;11.10;50.80
48978;DHT22;34793;48.940;2.618;2023-02-28T16:00:59;10.80;50.60
48978;DHT22;34793;48.940;2.618;2023-02-28T16:03:26;10.80;50.60
48978;DHT22;34793;48.940;2.618;2023-02-28T16:08:36;10.50;50.40
48978;DHT22;34793;48.940;2.618;2023-02-28T16:11:01;10.40;51.10
48978;DHT22;34793;48.940;2.618;2023-02-28T16:13:27;10.70;51.00
48978;DHT22;34793;48.940;2.618;2023-02-28T16:15:52;10.70;50.70
48978;DHT22;34793;48.940;2.618;2023-02-28T16:18:19;10.80;50.60
48978;DHT22;34793;48.940;2.618;2023-02-28T16:20:45;10.90;49.80
48978;DHT22;34793;48.940;2.618;2023-02-28T16:23:10;11.00;50.60
48978;DHT22;34793;48.940;2.618;2023-02-28T16:25:37;11.10;50.60
48978;DHT22;34793;48.940;2.618;2023-02-28T16:28:02;10.90;50.50
48978;DHT22;34793;48.940;2.618;2023-02-28T16:30:28;10.60;50.40
48978;DHT22;34793;48.940;2.618;2023-02-28T16:32:56;10.40;50.40
48978;DHT22;34793;48.940;2.618;2023-02-28T16:35:22;10.30;50.40
48978;DHT22;34793;48.940;2.618;2023-02-28T16:37:50;10.20;50.60
48978;DHT22;34793;48.940;2.618;2023-02-28T16:40:16;10.10;50.20
48978;DHT22;34793;48.940;2.618;2023-02-28T16:42:42;10.10;50.80
48978;DHT22;34793;48.940;2.618;2023-02-28T16:45:18;10.40;50.40
48978;DHT22;34793;48.940;2.618;2023-02-28T16:47:45;10.40;50.90
48978;DHT22;34793;48.940;2.618;2023-02-28T16:50:18;10.60;50.90
48978;DHT22;34793;48.940;2.618;2023-02-28T16:52:44;10.60;50.50
48978;DHT22;34793;48.940;2.618;2023-02-28T16:55:10;10.80;49.90
48978;DHT22;34793;48.940;2.618;2023-02-28T16:57:36;10.80;50.50
48978;DHT22;34793;48.940;2.618;2023-02-28T17:00:03;10.90;50.30
48978;DHT22;34793;48.940;2.618;2023-02-28T17:02:29;11.00;50.20
48978;DHT22;34793;48.940;2.618;2023-02-28T17:07:57;11.00;49.80
48978;DHT22;34793;48.940;2.618;2023-02-28T17:10:24;11.00;50.70
48978;DHT22;34793;48.940;2.618;2023-02-28T17:12:50;11.00;50.60
48978;DHT22;34793;48.940;2.618;2023-02-28T17:15:16;11.00;50.70
48978;DHT22;34793;48.940;2.618;2023-02-28T17:17:43;10.90;50.40
48978;DHT22;34793;48.940;2.618;2023-02-28T17:20:13;11.00;51.00
48978;DHT22;34793;48.940;2.618;2023-02-28T17:22:39;10.60;50.60
48978;DHT22;34793;48.940;2.618;2023-02-28T17:25:05;10.40;51.40
48978;DHT22;34793;48.940;2.618;2023-02-28T17:27:30;10.30;51.70
48978;DHT22;34793;48.940;2.618;2023-02-28T17:29:56;10.20;51.50
48978;DHT22;34793;48.940;2.618;2023-02-28T17:32:21;10.00;51.50
48978;DHT22;34793;48.940;2.618;2023-02-28T17:34:47;9.80;51.00
48978;DHT22;34793;48.940;2.618;2023-02-28T17:37:13;9.80;51.80
48978;DHT22;34793;48.940;2.618;2023-02-28T17:39:38;9.60;51.90
48978;DHT22;34793;48.940;2.618;2023-02-28T17:42:04;9.70;52.30
48978;DHT22;34793;48.940;2.618;2023-02-28T17:44:29;9.60;52.30